AGGM

Munda Airport

Solomon Islands
METAR AGGM 260500Z 09004KT 9999 SCT018 FEW019CB BKN100 28/24 Q1008
Observed Flight Rules
May-26 @ 05:00 UTC (9 hours ago) Visual Flight Rules
Wind Visibility Clouds
90° at 4 knots 10,000+ meters
  • Scattered at 1,800' AGL
  • Few at 1,900' AGL
  • Broken at 10,000' AGL
Temperatures Readings
Current 28°C / 82°F
Dewpoint 24°C / 75°F
Humidity 79%
Altimeter 29.76" Hg
Pressure 1008 hPa
Elevation 6
METAR AGGM 260500Z 09004KT 9999 SCT018 FEW019CB BKN100 28/24 Q1008
Observed Flight Rules
May-26 @ 05:00 UTC
(9 hours ago)
VFR
Wind Visibility
90° at 4 knots 10,000+ meters
Clouds
  • Scattered at 1,800' AGL
  • Few at 1,900' AGL
  • Broken at 10,000' AGL
Temperature Dewpoint
28°C / 82°F 24°C / 75°F
Humidity Altimeter Pressure
79% 29.76" Hg 1008 hPa